createdAt,value
2023-03-29T00:02:07.588Z,7.22
2023-03-29T00:04:34.561Z,7.13
2023-03-29T00:07:04.852Z,8.05
2023-03-29T00:09:33.519Z,8.13
2023-03-29T00:12:01.473Z,7.72
2023-03-29T00:14:30.829Z,8.60
2023-03-29T00:16:58.725Z,8.18
2023-03-29T00:19:26.000Z,7.72
2023-03-29T00:21:52.983Z,7.72
2023-03-29T00:24:21.542Z,7.55
2023-03-29T00:26:48.606Z,7.45
2023-03-29T00:29:15.480Z,7.55
2023-03-29T00:31:42.330Z,7.93
2023-03-29T00:34:09.187Z,7.15
2023-03-29T00:36:35.929Z,6.32
2023-03-29T00:39:02.709Z,7.72
2023-03-29T00:41:29.494Z,9.00
2023-03-29T00:43:58.120Z,7.88
2023-03-29T00:46:26.541Z,7.40
2023-03-29T00:48:56.758Z,8.38
2023-03-29T00:51:26.941Z,7.85
2023-03-29T00:53:58.074Z,6.88
2023-03-29T00:56:32.332Z,8.48
2023-03-29T00:59:09.692Z,7.57
2023-03-29T01:01:54.643Z,7.53
2023-03-29T01:04:43.580Z,7.85
2023-03-29T01:07:26.111Z,8.32
2023-03-29T01:10:04.366Z,7.10
2023-03-29T01:12:36.105Z,6.53
2023-03-29T01:15:10.151Z,6.97
2023-03-29T01:17:37.843Z,8.32
2023-03-29T01:20:43.462Z,8.95
2023-03-29T01:23:34.920Z,7.03
2023-03-29T01:26:04.640Z,6.75
2023-03-29T01:28:40.464Z,7.07
2023-03-29T01:31:12.000Z,8.18
2023-03-29T01:33:49.448Z,7.63
2023-03-29T01:36:27.207Z,7.47
2023-03-29T01:39:06.076Z,7.45
2023-03-29T01:42:14.679Z,7.82
2023-03-29T01:44:55.615Z,5.15
2023-03-29T01:47:32.008Z,5.47
2023-03-29T01:50:13.575Z,6.25
2023-03-29T01:52:49.930Z,6.57
2023-03-29T01:55:25.008Z,7.47
2023-03-29T01:57:54.258Z,6.93
2023-03-29T02:00:24.993Z,7.28
2023-03-29T02:02:55.208Z,6.35
2023-03-29T02:05:24.559Z,6.88
2023-03-29T02:07:52.992Z,6.07
2023-03-29T02:10:21.822Z,6.90
2023-03-29T02:12:49.047Z,7.43
2023-03-29T02:15:19.344Z,6.72
2023-03-29T02:17:47.944Z,8.85
2023-03-29T02:20:27.901Z,7.75
2023-03-29T02:23:02.218Z,8.15
2023-03-29T02:25:29.674Z,9.93
2023-03-29T02:27:57.253Z,7.35
2023-03-29T02:30:29.071Z,7.45
2023-03-29T02:33:03.745Z,6.80
2023-03-29T02:35:41.086Z,5.68
2023-03-29T02:38:11.499Z,7.72
2023-03-29T02:40:40.441Z,7.10
2023-03-29T02:43:08.446Z,6.53
2023-03-29T02:45:37.213Z,7.28
2023-03-29T02:48:08.541Z,7.38
2023-03-29T02:50:38.353Z,6.50
2023-03-29T02:53:14.888Z,7.55
2023-03-29T02:55:41.643Z,7.22
2023-03-29T02:58:08.916Z,8.30
2023-03-29T03:00:38.563Z,7.40
2023-03-29T03:03:07.986Z,7.32
2023-03-29T03:05:36.190Z,8.60
2023-03-29T03:08:02.990Z,6.97
2023-03-29T03:10:29.730Z,7.40
2023-03-29T03:12:56.658Z,6.72
2023-03-29T03:15:23.417Z,7.72
2023-03-29T03:17:50.173Z,7.35
2023-03-29T03:20:17.251Z,7.05
2023-03-29T03:22:48.991Z,7.00
2023-03-29T03:25:19.559Z,7.60
2023-03-29T03:27:46.824Z,7.63
2023-03-29T03:30:13.962Z,8.40
2023-03-29T03:32:41.581Z,7.95
2023-03-29T03:35:08.902Z,7.18
2023-03-29T03:37:35.889Z,7.90
2023-03-29T03:40:08.941Z,8.07
2023-03-29T03:42:35.873Z,7.25
2023-03-29T03:45:02.609Z,6.95
2023-03-29T03:47:29.448Z,7.60
2023-03-29T03:49:56.444Z,6.88
2023-03-29T03:52:23.381Z,6.15
2023-03-29T03:54:50.378Z,6.05
2023-03-29T03:57:17.548Z,5.57
2023-03-29T03:59:44.862Z,7.32
2023-03-29T04:02:11.590Z,6.88
2023-03-29T04:04:39.520Z,7.90
2023-03-29T04:07:06.497Z,6.50
2023-03-29T04:09:34.456Z,7.75
2023-03-29T04:12:04.370Z,6.57
2023-03-29T04:14:32.564Z,8.25
2023-03-29T04:16:59.304Z,7.05
2023-03-29T04:19:26.322Z,7.53
2023-03-29T04:21:53.030Z,6.88
2023-03-29T04:24:19.753Z,8.27
2023-03-29T04:26:48.637Z,6.28
2023-03-29T04:29:15.344Z,7.82
2023-03-29T04:31:42.061Z,7.53
2023-03-29T04:34:08.787Z,7.13
2023-03-29T04:36:35.643Z,7.35
2023-03-29T04:39:02.339Z,6.82
2023-03-29T04:41:29.187Z,7.63
2023-03-29T04:43:56.294Z,6.18
2023-03-29T04:46:26.768Z,5.82
2023-03-29T04:48:54.314Z,5.85
2023-03-29T04:51:22.413Z,5.00
2023-03-29T04:53:50.470Z,6.40
2023-03-29T04:56:17.456Z,7.68
2023-03-29T04:58:44.715Z,9.38
2023-03-29T05:01:11.563Z,6.38
2023-03-29T05:03:38.680Z,7.45
2023-03-29T05:06:09.914Z,7.78
2023-03-29T05:08:40.459Z,7.22
2023-03-29T05:11:11.708Z,6.97
2023-03-29T05:13:38.531Z,6.32
2023-03-29T05:16:06.999Z,5.45
2023-03-29T05:18:33.871Z,6.53
2023-03-29T05:21:00.995Z,7.15
2023-03-29T05:23:28.906Z,7.60
2023-03-29T05:25:55.601Z,6.75
2023-03-29T05:28:22.507Z,7.10
2023-03-29T05:31:00.295Z,6.20
2023-03-29T05:33:27.758Z,4.78
2023-03-29T05:36:06.737Z,5.00
2023-03-29T05:38:34.073Z,7.50
2023-03-29T05:41:01.788Z,6.70
2023-03-29T05:43:31.747Z,6.28
2023-03-29T05:45:58.735Z,6.22
2023-03-29T05:48:27.362Z,6.60
2023-03-29T05:50:55.686Z,6.70
2023-03-29T05:53:24.300Z,7.35
2023-03-29T05:55:51.658Z,6.95
2023-03-29T05:58:19.208Z,6.97
2023-03-29T06:00:46.512Z,6.93
2023-03-29T06:03:21.184Z,6.03
2023-03-29T06:05:57.115Z,6.82
2023-03-29T06:08:23.878Z,7.10
2023-03-29T06:10:50.589Z,8.63
2023-03-29T06:13:18.906Z,8.23
2023-03-29T06:15:46.130Z,7.97
2023-03-29T06:18:12.905Z,7.78
2023-03-29T06:20:39.623Z,9.13
2023-03-29T06:23:06.334Z,11.00
2023-03-29T06:25:34.235Z,10.25
2023-03-29T06:28:01.360Z,10.73
2023-03-29T06:30:28.480Z,9.93
2023-03-29T06:32:55.736Z,9.40
2023-03-29T06:35:22.659Z,8.07
2023-03-29T06:37:50.944Z,10.27
2023-03-29T06:40:19.293Z,8.13
2023-03-29T06:42:46.599Z,8.65
2023-03-29T06:45:14.199Z,8.88
2023-03-29T06:47:41.197Z,12.48
2023-03-29T06:50:08.829Z,10.27
2023-03-29T06:52:35.558Z,8.90
2023-03-29T06:55:02.711Z,8.70
2023-03-29T06:57:29.405Z,10.68
2023-03-29T06:59:56.165Z,10.70
2023-03-29T07:02:22.867Z,10.85
2023-03-29T07:04:49.620Z,10.85
2023-03-29T07:07:22.646Z,12.40
2023-03-29T07:09:55.522Z,15.93
2023-03-29T07:12:23.154Z,15.43
2023-03-29T07:14:50.111Z,17.10
2023-03-29T07:17:16.874Z,15.45
2023-03-29T07:19:43.992Z,15.52
2023-03-29T07:22:11.357Z,12.55
2023-03-29T07:24:38.094Z,11.23
2023-03-29T07:27:05.124Z,9.38
2023-03-29T07:29:32.762Z,11.18
2023-03-29T07:31:59.557Z,11.88
2023-03-29T07:34:27.242Z,11.55
2023-03-29T07:36:54.711Z,14.45
2023-03-29T07:39:22.468Z,11.35
2023-03-29T07:41:49.270Z,16.98
2023-03-29T07:44:18.374Z,13.23
2023-03-29T07:46:45.109Z,12.13
2023-03-29T07:49:11.894Z,9.98
2023-03-29T07:51:38.633Z,10.25
2023-03-29T07:54:06.524Z,13.57
2023-03-29T07:56:33.194Z,14.95
2023-03-29T07:58:59.939Z,10.38
2023-03-29T08:01:26.598Z,11.00
2023-03-29T08:03:53.447Z,8.57
2023-03-29T08:06:20.198Z,9.32
2023-03-29T08:08:47.528Z,10.05
2023-03-29T08:11:14.240Z,9.40
2023-03-29T08:13:41.061Z,10.07
2023-03-29T08:16:08.925Z,10.60
2023-03-29T08:18:35.749Z,10.43
2023-03-29T08:21:02.815Z,12.48
2023-03-29T08:23:29.849Z,9.77
2023-03-29T08:25:56.527Z,9.45
2023-03-29T08:28:23.394Z,9.18
2023-03-29T08:30:50.520Z,12.63
2023-03-29T08:33:17.346Z,7.93
2023-03-29T08:35:44.134Z,9.68
2023-03-29T08:38:11.257Z,10.25
2023-03-29T08:40:38.112Z,9.73
2023-03-29T08:43:24.046Z,8.98
2023-03-29T08:46:09.514Z,8.15
2023-03-29T08:48:44.212Z,8.85
2023-03-29T08:51:31.493Z,13.30
2023-03-29T08:54:40.185Z,9.65
2023-03-29T08:57:37.620Z,8.43
2023-03-29T09:00:07.138Z,6.53
2023-03-29T09:02:36.256Z,7.40
2023-03-29T09:05:28.156Z,7.32
2023-03-29T09:07:54.927Z,9.00
2023-03-29T09:10:31.644Z,8.75
2023-03-29T09:13:27.069Z,5.80
2023-03-29T09:16:30.654Z,5.05
2023-03-29T09:19:20.285Z,5.30
2023-03-29T09:22:08.656Z,5.88
2023-03-29T09:24:38.842Z,6.20
2023-03-29T09:27:27.378Z,5.88
2023-03-29T09:30:13.003Z,8.05
2023-03-29T09:32:44.348Z,5.88
2023-03-29T09:35:21.561Z,8.20
2023-03-29T09:37:51.525Z,7.45
2023-03-29T09:40:24.742Z,8.10
2023-03-29T09:45:19.605Z,7.28
2023-03-29T09:47:51.922Z,7.95
2023-03-29T09:50:32.030Z,7.17
2023-03-29T09:52:59.388Z,7.68
2023-03-29T09:55:29.468Z,7.03
2023-03-29T09:58:00.784Z,7.75
2023-03-29T10:00:28.087Z,6.70
2023-03-29T10:02:57.929Z,7.10
2023-03-29T10:05:26.407Z,6.78
2023-03-29T10:07:57.768Z,7.07
2023-03-29T10:10:32.634Z,7.60
2023-03-29T10:13:12.346Z,6.93
2023-03-29T10:15:39.068Z,5.45
2023-03-29T10:18:12.793Z,7.20
2023-03-29T10:20:40.480Z,6.22
2023-03-29T10:23:08.930Z,9.32
2023-03-29T10:25:42.956Z,8.10
2023-03-29T10:28:21.278Z,7.05
2023-03-29T10:30:55.328Z,8.40
2023-03-29T10:33:24.372Z,7.80
2023-03-29T10:35:51.778Z,8.32
2023-03-29T10:38:20.928Z,7.15
2023-03-29T10:40:56.046Z,7.70
2023-03-29T10:43:27.058Z,10.32
2023-03-29T10:46:06.821Z,10.30
2023-03-29T10:48:35.342Z,11.25
2023-03-29T10:51:06.149Z,8.88
2023-03-29T10:53:35.200Z,12.77
2023-03-29T10:56:08.307Z,13.40
2023-03-29T10:59:04.364Z,9.88
2023-03-29T11:01:54.965Z,11.13
2023-03-29T11:04:40.085Z,11.57
2023-03-29T11:07:22.814Z,12.40
2023-03-29T11:10:11.259Z,11.95
2023-03-29T11:12:46.985Z,10.35
2023-03-29T11:15:28.340Z,9.10
2023-03-29T11:18:13.879Z,11.50
2023-03-29T11:21:00.983Z,9.75
2023-03-29T11:24:05.451Z,8.63
2023-03-29T11:26:43.251Z,11.45
2023-03-29T11:29:18.782Z,8.77
2023-03-29T11:32:00.654Z,9.40
2023-03-29T11:34:40.800Z,10.63
2023-03-29T11:37:22.328Z,10.75
2023-03-29T11:40:10.731Z,9.80
2023-03-29T11:42:43.431Z,11.13
2023-03-29T11:45:17.790Z,11.27
2023-03-29T11:47:47.620Z,9.93
2023-03-29T11:50:20.439Z,9.02
2023-03-29T11:52:56.690Z,9.93
2023-03-29T11:55:30.652Z,9.02
2023-03-29T11:58:16.789Z,9.27
2023-03-29T12:00:46.385Z,8.32
2023-03-29T12:03:39.446Z,8.38
2023-03-29T12:06:36.104Z,8.23
2023-03-29T12:09:12.804Z,7.72
2023-03-29T12:11:50.497Z,8.35
2023-03-29T12:14:49.919Z,7.22
2023-03-29T12:17:21.238Z,7.13
2023-03-29T12:20:13.397Z,7.22
2023-03-29T12:22:40.668Z,6.70
2023-03-29T12:25:14.660Z,8.63
2023-03-29T12:28:42.887Z,5.70
2023-03-29T12:31:50.877Z,5.43
2023-03-29T12:34:26.617Z,5.63
2023-03-29T12:37:17.259Z,6.72
2023-03-29T12:39:44.476Z,5.53
2023-03-29T12:42:23.019Z,6.07
2023-03-29T12:44:57.191Z,4.22
2023-03-29T12:47:31.691Z,5.43
2023-03-29T12:50:00.518Z,4.63
2023-03-29T12:52:32.318Z,4.88
2023-03-29T12:55:03.108Z,5.90
2023-03-29T12:57:41.060Z,3.75
2023-03-29T13:00:13.296Z,4.50
2023-03-29T13:02:40.189Z,4.95
2023-03-29T13:05:29.396Z,4.32
2023-03-29T13:07:56.288Z,5.05
2023-03-29T13:10:37.017Z,4.88
2023-03-29T13:13:33.891Z,4.25
2023-03-29T13:16:18.822Z,4.40
2023-03-29T13:19:06.873Z,4.95
2023-03-29T13:21:55.391Z,3.90
2023-03-29T13:24:24.980Z,4.30
2023-03-29T13:27:10.430Z,4.00
2023-03-29T13:29:58.975Z,3.83
2023-03-29T13:32:34.036Z,4.60
2023-03-29T13:35:16.560Z,5.78
2023-03-29T13:37:57.868Z,5.63
2023-03-29T13:40:46.442Z,6.78
2023-03-29T13:43:22.672Z,4.78
2023-03-29T13:45:58.535Z,8.30
2023-03-29T13:48:27.497Z,7.55
2023-03-29T13:51:08.321Z,7.65
2023-03-29T13:53:51.836Z,7.82
2023-03-29T13:59:19.004Z,5.43
2023-03-29T14:01:58.029Z,7.80
2023-03-29T14:04:28.134Z,7.57
2023-03-29T14:06:56.879Z,6.22
2023-03-29T14:09:33.429Z,10.52
2023-03-29T14:12:01.515Z,8.65
2023-03-29T14:14:32.204Z,9.00
2023-03-29T14:17:02.010Z,10.02
2023-03-29T14:19:35.432Z,10.00
2023-03-29T14:24:40.476Z,9.50
2023-03-29T14:27:10.347Z,7.55
2023-03-29T14:29:37.170Z,7.00
2023-03-29T14:32:19.086Z,8.13
2023-03-29T14:34:50.650Z,9.48
2023-03-29T14:37:35.754Z,8.55
2023-03-29T14:40:02.495Z,6.45
2023-03-29T14:42:29.890Z,8.45
2023-03-29T14:45:05.539Z,8.85
2023-03-29T14:47:33.758Z,6.97
2023-03-29T14:50:01.880Z,6.70
2023-03-29T14:52:30.567Z,9.93
2023-03-29T14:55:01.059Z,7.57
2023-03-29T14:57:34.315Z,8.60
2023-03-29T15:02:53.944Z,9.38
2023-03-29T15:05:36.026Z,8.73
2023-03-29T15:08:04.362Z,9.48
2023-03-29T15:10:35.812Z,9.05
2023-03-29T15:13:04.611Z,10.07
2023-03-29T15:15:38.457Z,11.27
2023-03-29T15:18:07.747Z,11.13
2023-03-29T15:20:38.585Z,10.38
2023-03-29T15:23:14.541Z,10.73
2023-03-29T15:26:20.147Z,9.57
2023-03-29T15:28:49.804Z,9.75
2023-03-29T15:31:19.855Z,9.23
2023-03-29T15:33:47.131Z,12.02
2023-03-29T15:36:14.890Z,10.38
2023-03-29T15:38:45.100Z,10.93
2023-03-29T15:41:13.646Z,13.30
2023-03-29T15:43:41.496Z,10.50
2023-03-29T15:46:08.890Z,9.80
2023-03-29T15:48:35.830Z,9.25
2023-03-29T15:51:05.708Z,8.50
2023-03-29T15:53:33.462Z,11.63
2023-03-29T15:56:02.098Z,12.32
2023-03-29T15:58:34.357Z,12.05
2023-03-29T16:01:34.430Z,12.68
2023-03-29T16:04:11.300Z,16.67
2023-03-29T16:06:38.246Z,15.95
2023-03-29T16:09:07.182Z,16.15
2023-03-29T16:11:34.364Z,12.30
2023-03-29T16:14:01.290Z,13.25
2023-03-29T16:16:28.038Z,13.00
2023-03-29T16:18:54.776Z,12.85
2023-03-29T16:21:22.944Z,14.77
2023-03-29T16:23:50.131Z,12.95
2023-03-29T16:26:17.641Z,10.00
2023-03-29T16:28:44.386Z,12.68
2023-03-29T16:31:12.552Z,10.02
2023-03-29T16:33:41.110Z,13.15
2023-03-29T16:36:10.611Z,12.13
2023-03-29T16:38:37.657Z,11.98
2023-03-29T16:41:04.617Z,10.52
2023-03-29T16:43:31.717Z,13.63
2023-03-29T16:45:58.559Z,11.98
2023-03-29T16:48:25.385Z,12.55
2023-03-29T16:50:52.167Z,11.18
2023-03-29T16:53:20.043Z,13.55
2023-03-29T16:55:47.985Z,11.63
2023-03-29T16:58:15.548Z,13.38
2023-03-29T17:00:45.030Z,13.80
2023-03-29T17:03:13.283Z,11.75
2023-03-29T17:05:41.869Z,12.65
2023-03-29T17:08:10.303Z,11.80
2023-03-29T17:10:40.672Z,15.00
2023-03-29T17:13:08.227Z,18.85
2023-03-29T17:15:38.161Z,14.52
2023-03-29T17:18:06.584Z,13.20
2023-03-29T17:20:33.397Z,13.40
2023-03-29T17:23:00.145Z,10.75
2023-03-29T17:25:27.090Z,14.27
2023-03-29T17:27:54.197Z,18.08
2023-03-29T17:30:21.303Z,17.02
2023-03-29T17:32:48.421Z,16.23
2023-03-29T17:35:15.451Z,13.38
2023-03-29T17:37:42.731Z,12.90
2023-03-29T17:40:11.370Z,11.48
2023-03-29T17:42:38.163Z,14.70
2023-03-29T17:45:05.418Z,22.38
2023-03-29T17:47:32.086Z,17.77
2023-03-29T17:49:58.915Z,14.70
2023-03-29T17:52:26.304Z,16.42
2023-03-29T17:54:53.044Z,14.95
2023-03-29T17:57:19.879Z,14.02
2023-03-29T17:59:46.568Z,13.02
2023-03-29T18:02:24.566Z,15.80
2023-03-29T18:04:51.819Z,12.88
2023-03-29T18:07:18.716Z,12.85
2023-03-29T18:09:45.492Z,20.25
2023-03-29T18:12:12.530Z,14.98
2023-03-29T18:14:39.153Z,12.75
2023-03-29T18:17:06.056Z,12.38
2023-03-29T18:19:32.744Z,17.25
2023-03-29T18:21:59.459Z,13.35
2023-03-29T18:24:26.197Z,13.07
2023-03-29T18:26:52.956Z,12.07
2023-03-29T18:29:19.688Z,12.70
2023-03-29T18:31:46.461Z,13.10
2023-03-29T18:34:13.282Z,9.55
2023-03-29T18:36:39.972Z,9.85
2023-03-29T18:39:06.669Z,11.23
2023-03-29T18:41:35.683Z,10.15
2023-03-29T18:44:02.500Z,7.38
2023-03-29T18:46:31.355Z,8.95
2023-03-29T18:48:59.101Z,6.22
2023-03-29T18:51:28.107Z,7.07
2023-03-29T18:53:56.063Z,6.72
2023-03-29T18:56:23.323Z,7.25
2023-03-29T18:58:50.063Z,6.88
2023-03-29T19:01:16.789Z,9.95
2023-03-29T19:03:43.554Z,11.30
2023-03-29T19:06:11.853Z,13.70
2023-03-29T19:08:41.482Z,15.68
2023-03-29T19:11:10.709Z,11.30
2023-03-29T19:13:37.497Z,13.52
2023-03-29T19:16:04.900Z,10.05
2023-03-29T19:18:31.971Z,11.50
2023-03-29T19:20:58.632Z,11.55
2023-03-29T19:23:27.313Z,10.35
2023-03-29T19:26:05.785Z,13.02
2023-03-29T19:28:34.105Z,14.85
2023-03-29T19:31:02.461Z,14.60
2023-03-29T19:33:29.519Z,15.10
2023-03-29T19:35:56.431Z,12.70
2023-03-29T19:38:23.207Z,12.77
2023-03-29T19:40:51.581Z,12.80
2023-03-29T19:43:18.967Z,13.95
2023-03-29T19:45:47.981Z,10.23
2023-03-29T19:48:22.330Z,15.00
2023-03-29T19:50:50.534Z,10.57
2023-03-29T19:53:17.235Z,15.55
2023-03-29T19:55:45.452Z,14.00
2023-03-29T19:58:12.783Z,15.20
2023-03-29T20:00:39.602Z,13.70
2023-03-29T20:03:10.580Z,17.98
2023-03-29T20:05:38.935Z,14.65
2023-03-29T20:08:06.808Z,10.45
2023-03-29T20:10:34.694Z,12.02
2023-03-29T20:13:02.081Z,9.35
2023-03-29T20:15:28.850Z,9.75
2023-03-29T20:17:59.484Z,9.63
2023-03-29T20:20:28.623Z,9.70
2023-03-29T20:23:04.553Z,12.82
2023-03-29T20:25:32.784Z,11.55
2023-03-29T20:28:01.694Z,15.82
2023-03-29T20:30:28.615Z,15.07
2023-03-29T20:32:55.352Z,12.65
2023-03-29T20:35:22.201Z,12.80
2023-03-29T20:37:48.869Z,15.30
2023-03-29T20:40:15.802Z,10.23
2023-03-29T20:42:42.584Z,12.52
2023-03-29T20:45:18.535Z,10.32
2023-03-29T20:47:50.448Z,12.68
2023-03-29T20:50:20.308Z,10.32
2023-03-29T20:52:47.115Z,13.60
2023-03-29T20:55:16.797Z,12.38
2023-03-29T20:57:43.850Z,12.68
2023-03-29T21:00:12.299Z,11.98
2023-03-29T21:02:39.504Z,10.65
2023-03-29T21:05:06.937Z,11.82
2023-03-29T21:07:33.883Z,9.43
2023-03-29T21:10:01.255Z,10.18
2023-03-29T21:12:28.069Z,11.15
2023-03-29T21:14:55.327Z,14.57
2023-03-29T21:17:22.221Z,10.07
2023-03-29T21:19:49.105Z,8.68
2023-03-29T21:22:15.877Z,11.00
2023-03-29T21:24:42.622Z,9.23
2023-03-29T21:27:09.590Z,7.57
2023-03-29T21:29:36.262Z,8.98
2023-03-29T21:32:03.126Z,9.75
2023-03-29T21:34:29.845Z,7.20
2023-03-29T21:36:56.832Z,8.07
2023-03-29T21:39:26.234Z,9.23
2023-03-29T21:41:53.366Z,6.93
2023-03-29T21:44:20.449Z,7.68
2023-03-29T21:46:47.143Z,6.40
2023-03-29T21:49:13.929Z,7.88
2023-03-29T21:51:40.724Z,5.30
2023-03-29T21:54:07.492Z,7.10
2023-03-29T21:56:34.171Z,7.20
2023-03-29T21:59:00.937Z,7.22
2023-03-29T22:01:27.682Z,7.47
2023-03-29T22:03:54.400Z,7.47
2023-03-29T22:06:21.419Z,6.40
2023-03-29T22:08:50.345Z,8.60
2023-03-29T22:11:17.595Z,7.22
2023-03-29T22:13:45.064Z,9.80
2023-03-29T22:16:18.939Z,10.75
2023-03-29T22:18:49.362Z,8.82
2023-03-29T22:21:24.891Z,6.63
2023-03-29T22:23:56.162Z,9.68
2023-03-29T22:26:27.927Z,8.77
2023-03-29T22:28:59.316Z,7.13
2023-03-29T22:31:28.617Z,7.70
2023-03-29T22:33:55.880Z,8.40
2023-03-29T22:36:25.413Z,7.15
2023-03-29T22:38:53.012Z,9.50
2023-03-29T22:41:22.755Z,10.98
2023-03-29T22:43:52.381Z,9.00
2023-03-29T22:46:20.768Z,7.13
2023-03-29T22:48:47.981Z,7.15
2023-03-29T22:51:15.438Z,8.13
2023-03-29T22:53:42.491Z,9.63
2023-03-29T22:56:09.524Z,8.25
2023-03-29T22:58:37.368Z,8.20
2023-03-29T23:01:04.909Z,8.20
2023-03-29T23:03:32.195Z,7.00
2023-03-29T23:06:02.471Z,8.15
2023-03-29T23:08:31.381Z,7.78
2023-03-29T23:10:58.886Z,6.40
2023-03-29T23:13:29.480Z,5.03
2023-03-29T23:16:00.075Z,6.50
2023-03-29T23:18:28.835Z,7.20
2023-03-29T23:20:58.021Z,4.82
2023-03-29T23:23:27.351Z,8.23
2023-03-29T23:25:55.841Z,8.93
2023-03-29T23:28:27.357Z,5.90
2023-03-29T23:30:58.726Z,5.43
2023-03-29T23:33:26.191Z,6.88
2023-03-29T23:35:54.470Z,6.72
2023-03-29T23:38:21.430Z,5.88
2023-03-29T23:41:01.110Z,6.47
2023-03-29T23:43:33.031Z,5.47
2023-03-29T23:46:02.401Z,6.75
2023-03-29T23:48:30.216Z,4.85
2023-03-29T23:50:57.459Z,5.78
2023-03-29T23:53:25.721Z,4.72
2023-03-29T23:55:55.514Z,5.88
2023-03-29T23:58:22.378Z,5.63
